CheckWX is a tool to help pilots better visualize weather data.  It is not intended as a substitute for an official pre-flight weather briefing.

13:40:30 UTC

K1YT METAR
Yagabond Aaf
Yagabond Aaf, Washington, USA
Current

43 mins ago

K1YT 211258Z AUTO 00000KT 10SM CLR 08/05 A3008 RMK AO2 SLPNO T00800052 $
Observed
Sep-21 @ 12:58 UTC
Visibility
10 SM
Flight Rules
VFR
Cloud Levels
  • Clear skies
Temperature
C / 46°F
Dewpoint
C / 41°F
Humidity
82%
Altimeter
30.08" Hg
Pressure
1018.62 hPa
Previous

2 hours ago

K1YT 211158Z AUTO 00000KT 10SM CLR 10/06 A3008 RMK AO2 SLPNO T00980059 10132 20098 55000 $
Observed
Sep-21 @ 11:58 UTC
Visibility
10 SM
Flight Rules
VFR
Cloud Levels
  • Clear skies
Temperature
10°C / 50°F
Dewpoint
C / 43°F
Humidity
76%
Altimeter
30.08" Hg
Pressure
1018.62 hPa
Previous

3 hours ago

K1YT 211058Z AUTO 10007KT 10SM CLR 12/06 A3008 RMK AO2 SLPNO T01170062 $
Observed
Sep-21 @ 10:58 UTC
Wind
  • 100° at 7 KTS
Visibility
10 SM
Flight Rules
VFR
Cloud Levels
  • Clear skies
Temperature
12°C / 54°F
Dewpoint
C / 43°F
Humidity
67%
Altimeter
30.08" Hg
Pressure
1018.62 hPa